Terminal Aerodrome Forecast
Issued by NWS Louisville, KY

Home | Current Version | Previous Version | Text Only | Print | Product List | Glossary On
Versions: 1 2 3 4 5 6 7 8 9 10 11 12 13 14 15 16 17 18 19
195
FTUS43 KLMK 181016 AAA
TAFBWG
TAF AMD
KBWG 181016Z 1810/1906 00000KT 2SM BR FEW250
      TEMPO 1810/1812 1/2SM FG
     FM181300 VRB04KT P6SM FEW040
     FM182000 VRB04KT P6SM VCTS SCT040CB SCT200
     FM190000 VRB03KT P6SM SCT150=

USA.gov is the U.S. government's official web portal to all federal, state and local government web resources and services.